Valle del Fuerte International Airport

Jump to: basic info | weather | frequencies | runways | comments

Related pages: nearby airports | nearby navaids | notams | map

Basic information (top)

Codes: LMM MMLM
Location: lon 25.685200, lat -109.081001, elev 16 ft / 5 m msl
Status: medium_airport
Scheduled airline service: yes
Links: Wikipedia Mobile

Weather (top)

Current conditions (rec'd 2014/08/20 21:49Z):

MMLM 202149Z 22010KT 10SM FEW020TCU OVC200 31/24 A2982 RMK 8/207 BINOVC

Airport forecast (rec'd 2014/08/20 20:54Z):

TAF COR MMLM 201949Z 2020/2118 24006KT P6SM SCT015 BKN220 
     FM202000 20012KT 5SM -RA BKN010CB BKN220 
      TEMPO 2020/2023 09015KT 2SM TSRA 
     FM210000 26006KT P6SM SCT020CB BKN100 PROB40 2103/2107 6SM TSRA BKN020CB 
     FM210800 00000KT P6SM SCT020 BKN100 
     FM211600 21006KT P6SM SCT020 SCT100

Frequencies (top)

Verify before use: may be inaccurate or out of date.

TWR: 118.8 MHz (MOCHIS TWR)

Runways (top)

09/27: 6,562 x 148 ft (2,000 x 45 m) — paved — lighted

Latest comments (top)

No comments yet for Valle del Fuerte International Airport

More... (top)

See also NOTAMs and nearby airports and navaids, or visit the Valle del Fuerte International Airport page at the main OurAirports website..